Погода Загромадинона 2 недели

Витебская область, Белоруссия

23 мая-05 июня
  • 23мая
    Сегодня
    +12°
    +24°
    Практически безоблачно
    ВремяПогодаТемператураВлажностьДавлениеВетер, м/сВероятность осадков
    00:00Небольшая облачность+16°C92 %751 мм2.9 м/с3 %
    03:00Ясно и безоблачно+15°C94 %751 мм3.1 м/с2 %
    06:00Ясно и безоблачно+15°C94 %752 мм3.8 м/с2 %
    09:00Ясно и безоблачно+19°C79 %753 мм1.6 м/с2 %
    12:00Ясно и безоблачно+23°C56 %753 мм5.1 м/с2 %
    15:00Практически безоблачно+24°C51 %753 мм5.2 м/с6 %
    18:00Небольшая облачность+22°C51 %753 мм4.8 м/с18 %
    21:00Небольшая облачность+19°C58 %754 мм1.1 м/с2 %
  • 24мая
    Пятница
    +11°
    +22°
    Ясно и безоблачно
    ВремяПогодаТемператураВлажностьДавлениеВетер, м/сВероятность осадков
    00:00Ясно и безоблачно+16°C57 %755 мм4.9 м/с2 %
    03:00Ясно и безоблачно+14°C61 %756 мм4.2 м/с2 %
    06:00Ясно и безоблачно+13°C64 %756 мм4.5 м/с1 %
    09:00Ясно и безоблачно+16°C55 %757 мм1.8 м/с1 %
    12:00Ясно и безоблачно+20°C47 %757 мм4.2 м/с2 %
    15:00Ясно и безоблачно+22°C43 %756 мм4.1 м/с2 %
    18:00Ясно и безоблачно+21°C44 %756 мм4.0 м/с2 %
    21:00Ясно и безоблачно+17°C57 %755 мм0.9 м/с2 %
  • 25мая
    Суббота
    +10°
    +24°
    Ясно и безоблачно
    ВремяПогодаТемператураВлажностьДавлениеВетер, м/сВероятность осадков
    00:00Ясно и безоблачно+14°C64 %756 мм3.3 м/с2 %
    03:00Ясно и безоблачно+12°C72 %756 мм3.2 м/с2 %
    06:00Ясно и безоблачно+12°C73 %756 мм3.6 м/с2 %
    09:00Ясно и безоблачно+17°C60 %755 мм1.3 м/с2 %
    12:00Ясно и безоблачно+22°C47 %755 мм3.1 м/с2 %
    15:00Ясно и безоблачно+24°C40 %754 мм3.4 м/с2 %
    18:00Практически безоблачно+23°C41 %753 мм2.9 м/с6 %
    21:00Практически безоблачно+19°C57 %753 мм0.7 м/с2 %
  • 26мая
    Воскресенье
    +11°
    +23°
    Ясно и безоблачно
    ВремяПогодаТемператураВлажностьДавлениеВетер, м/сВероятность осадков
    00:00Ясно и безоблачно+16°C63 %753 мм2.9 м/с2 %
    03:00Ясно и безоблачно+13°C65 %753 мм2.4 м/с2 %
    06:00Ясно и безоблачно+13°C68 %753 мм1.9 м/с2 %
    09:00Ясно и безоблачно+20°C52 %753 мм0.5 м/с2 %
    12:00Ясно и безоблачно+23°C36 %754 мм2.1 м/с2 %
    15:00Ясно и безоблачно+24°C35 %753 мм1.4 м/с6 %
    18:00Ясно и безоблачно+24°C36 %753 мм1.1 м/с8 %
    21:00Ясно и безоблачно+20°C56 %753 мм0.1 м/с3 %
  • 27мая
    Понедельник
    +14°
    +25°
    Практически безоблачно
    ВремяПогодаТемператураВлажностьДавлениеВетер, м/сВероятность осадков
    00:00Ясно и безоблачно+14°C76 %753 мм2.4 м/с2 %
    03:00Ясно и безоблачно+15°C66 %753 мм0.9 м/с2 %
    06:00Ясно и безоблачно+14°C71 %754 мм0.9 м/с2 %
    09:00Небольшая облачность+21°C57 %754 мм0.2 м/с2 %
    12:00Ясно и безоблачно+25°C38 %754 мм1.7 м/с16 %
    15:00Практически безоблачно+26°C39 %754 мм1.8 м/с18 %
    18:00Практически безоблачно+25°C40 %753 мм1.8 м/с36 %
    21:00Ясно и безоблачно+21°C59 %753 мм0.4 м/с10 %
Мы используем cookies
Соглашаюсь